createdAt,value
2022-11-24T00:02:04.419Z,9.20
2022-11-24T00:04:34.629Z,9.10
2022-11-24T00:07:04.581Z,8.80
2022-11-24T00:09:34.080Z,8.80
2022-11-24T00:12:03.609Z,8.80
2022-11-24T00:14:33.283Z,8.80
2022-11-24T00:17:03.275Z,8.80
2022-11-24T00:19:33.078Z,8.70
2022-11-24T00:22:02.529Z,8.50
2022-11-24T00:24:32.423Z,8.30
2022-11-24T00:27:02.452Z,8.20
2022-11-24T00:29:32.064Z,8.20
2022-11-24T00:32:03.232Z,8.30
2022-11-24T00:34:33.804Z,8.30
2022-11-24T00:37:03.533Z,8.30
2022-11-24T00:39:33.011Z,8.40
2022-11-24T00:42:02.533Z,8.40
2022-11-24T00:44:32.391Z,8.50
2022-11-24T00:47:02.494Z,8.40
2022-11-24T00:49:34.844Z,8.40
2022-11-24T00:52:04.415Z,8.50
2022-11-24T00:54:34.237Z,8.60
2022-11-24T00:57:04.341Z,8.70
2022-11-24T00:59:33.856Z,8.70
2022-11-24T01:02:03.563Z,8.70
2022-11-24T01:04:33.461Z,8.70
2022-11-24T01:07:03.312Z,8.70
2022-11-24T01:09:32.845Z,8.70
2022-11-24T01:12:02.385Z,8.70
2022-11-24T01:14:33.650Z,8.70
2022-11-24T01:17:03.642Z,8.70
2022-11-24T01:19:33.198Z,8.80
2022-11-24T01:22:02.670Z,8.70
2022-11-24T01:24:32.304Z,8.70
2022-11-24T01:27:02.324Z,8.60
2022-11-24T01:29:31.780Z,8.60
2022-11-24T01:32:01.300Z,8.60
2022-11-24T01:34:30.924Z,8.60
2022-11-24T01:37:00.651Z,8.50
2022-11-24T01:39:30.232Z,8.40
2022-11-24T01:42:03.989Z,8.40
2022-11-24T01:44:35.443Z,8.50
2022-11-24T01:47:35.426Z,8.50
2022-11-24T01:50:06.782Z,8.50
2022-11-24T01:52:39.418Z,8.50
2022-11-24T01:55:11.949Z,8.50
2022-11-24T01:57:47.397Z,8.50
2022-11-24T02:00:18.900Z,8.50
2022-11-24T02:02:48.573Z,8.50
2022-11-24T02:05:21.275Z,8.50
2022-11-24T02:07:50.895Z,8.50
2022-11-24T02:10:19.606Z,8.50
2022-11-24T02:12:52.236Z,8.40
2022-11-24T02:15:21.470Z,8.40
2022-11-24T02:17:50.918Z,8.40
2022-11-24T02:20:20.527Z,8.40
2022-11-24T02:23:18.781Z,8.40
2022-11-24T02:26:08.078Z,8.40
2022-11-24T02:28:38.258Z,8.40
2022-11-24T02:31:08.066Z,8.40
2022-11-24T02:33:38.581Z,8.30
2022-11-24T02:36:08.372Z,8.30
2022-11-24T02:38:38.361Z,8.30
2022-11-24T02:41:11.298Z,8.20
2022-11-24T02:43:46.408Z,8.20
2022-11-24T02:46:15.148Z,8.10
2022-11-24T02:48:44.580Z,8.20
2022-11-24T02:51:14.581Z,8.30
2022-11-24T02:53:44.098Z,8.30
2022-11-24T02:56:13.627Z,8.30
2022-11-24T02:58:43.201Z,8.20
2022-11-24T03:01:12.708Z,8.10
2022-11-24T03:03:42.206Z,8.10
2022-11-24T03:06:11.714Z,8.10
2022-11-24T03:08:42.876Z,8.00
2022-11-24T03:11:12.357Z,8.00
2022-11-24T03:13:41.826Z,7.90
2022-11-24T03:16:11.802Z,7.90
2022-11-24T03:18:41.347Z,7.90
2022-11-24T03:21:10.785Z,8.00
2022-11-24T03:26:16.246Z,8.00
2022-11-24T03:28:46.128Z,8.00
2022-11-24T03:31:16.372Z,8.00
2022-11-24T03:33:46.091Z,7.90
2022-11-24T03:36:15.621Z,7.90
2022-11-24T03:38:45.468Z,7.80
2022-11-24T03:41:14.917Z,7.50
2022-11-24T03:43:45.061Z,7.20
2022-11-24T03:46:14.604Z,7.10
2022-11-24T03:48:44.433Z,7.10
2022-11-24T03:51:14.177Z,7.10
2022-11-24T03:53:43.696Z,7.10
2022-11-24T03:56:13.149Z,7.10
2022-11-24T03:58:41.848Z,7.10
2022-11-24T04:01:11.288Z,7.20
2022-11-24T04:03:39.986Z,7.30
2022-11-24T04:06:09.498Z,7.30
2022-11-24T04:08:38.243Z,7.50
2022-11-24T04:11:07.610Z,7.40
2022-11-24T04:13:37.116Z,7.50
2022-11-24T04:16:09.164Z,7.40
2022-11-24T04:18:37.875Z,7.40
2022-11-24T04:21:06.586Z,7.40
2022-11-24T04:23:35.174Z,7.50
2022-11-24T04:26:04.993Z,7.50
2022-11-24T04:28:34.441Z,7.50
2022-11-24T04:31:05.524Z,7.60
2022-11-24T04:33:35.181Z,7.60
2022-11-24T04:36:04.774Z,7.60
2022-11-24T04:39:19.461Z,7.60
2022-11-24T04:41:06.513Z,7.60
2022-11-24T04:43:40.440Z,7.60
2022-11-24T04:46:08.044Z,7.60
2022-11-24T04:48:37.605Z,7.60
2022-11-24T04:51:07.787Z,7.60
2022-11-24T04:53:37.329Z,7.40
2022-11-24T04:56:07.521Z,7.30
2022-11-24T04:58:37.466Z,7.40
2022-11-24T05:01:10.185Z,7.50
2022-11-24T05:03:40.377Z,7.50
2022-11-24T05:06:12.306Z,7.50
2022-11-24T05:08:41.795Z,7.40
2022-11-24T05:11:11.248Z,7.00
2022-11-24T05:13:40.829Z,7.00
2022-11-24T05:16:10.388Z,7.10
2022-11-24T05:18:40.410Z,7.30
2022-11-24T05:21:09.843Z,7.30
2022-11-24T05:23:39.815Z,7.30
2022-11-24T05:26:09.699Z,7.30
2022-11-24T05:28:39.247Z,7.30
2022-11-24T05:31:08.962Z,7.30
2022-11-24T05:33:38.441Z,7.30
2022-11-24T05:36:08.603Z,7.30
2022-11-24T05:38:38.047Z,7.40
2022-11-24T05:41:07.624Z,7.40
2022-11-24T05:43:37.103Z,7.30
2022-11-24T05:46:06.592Z,7.20
2022-11-24T05:48:36.025Z,7.30
2022-11-24T05:51:09.284Z,7.30
2022-11-24T05:53:37.694Z,7.30
2022-11-24T05:56:07.590Z,7.30
2022-11-24T05:58:37.051Z,7.30
2022-11-24T06:01:09.523Z,7.20
2022-11-24T06:03:38.954Z,7.20
2022-11-24T06:06:08.634Z,7.20
2022-11-24T06:08:38.078Z,7.20
2022-11-24T06:11:19.495Z,7.20
2022-11-24T06:13:49.527Z,7.10
2022-11-24T06:16:21.159Z,7.20
2022-11-24T06:18:52.263Z,7.10
2022-11-24T06:21:21.715Z,7.10
2022-11-24T06:23:51.154Z,7.10
2022-11-24T06:26:20.711Z,7.00
2022-11-24T06:28:50.214Z,7.00
2022-11-24T06:31:19.763Z,7.00
2022-11-24T06:33:49.234Z,7.00
2022-11-24T06:36:18.711Z,7.10
2022-11-24T06:38:48.152Z,7.00
2022-11-24T06:41:18.521Z,7.00
2022-11-24T06:43:47.665Z,7.00
2022-11-24T06:46:17.097Z,7.00
2022-11-24T06:48:48.285Z,7.00
2022-11-24T06:51:18.888Z,7.00
2022-11-24T06:53:49.559Z,7.00
2022-11-24T06:56:21.324Z,6.90
2022-11-24T06:58:52.701Z,7.00
2022-11-24T07:01:25.183Z,7.00
2022-11-24T07:03:57.264Z,7.00
2022-11-24T07:06:28.529Z,7.10
2022-11-24T07:08:57.982Z,7.00
2022-11-24T07:11:27.692Z,7.00
2022-11-24T07:14:00.260Z,7.00
2022-11-24T07:16:30.589Z,7.00
2022-11-24T07:19:01.142Z,7.00
2022-11-24T07:21:33.399Z,6.70
2022-11-24T07:24:03.227Z,6.80
2022-11-24T07:26:34.443Z,7.10
2022-11-24T07:29:05.516Z,7.10
2022-11-24T07:31:35.144Z,6.90
2022-11-24T07:34:04.687Z,6.90
2022-11-24T07:36:34.231Z,7.10
2022-11-24T07:39:03.718Z,7.20
2022-11-24T07:41:33.158Z,7.30
2022-11-24T07:44:02.651Z,7.40
2022-11-24T07:46:32.154Z,7.50
2022-11-24T07:49:01.584Z,7.50
2022-11-24T07:51:31.001Z,7.30
2022-11-24T07:54:00.499Z,7.30
2022-11-24T07:56:30.002Z,7.30
2022-11-24T07:58:59.437Z,7.50
2022-11-24T08:01:29.136Z,7.30
2022-11-24T08:03:58.866Z,7.30
2022-11-24T08:06:38.172Z,7.40
2022-11-24T08:09:01.056Z,7.40
2022-11-24T08:11:31.770Z,7.60
2022-11-24T08:14:01.171Z,7.70
2022-11-24T08:16:30.802Z,7.80
2022-11-24T08:19:00.427Z,7.80
2022-11-24T08:21:29.841Z,7.80
2022-11-24T08:23:59.907Z,8.00
2022-11-24T08:26:29.402Z,8.00
2022-11-24T08:29:00.130Z,8.10
2022-11-24T08:31:32.099Z,8.10
2022-11-24T08:34:02.958Z,8.20
2022-11-24T08:36:33.034Z,8.00
2022-11-24T08:39:02.975Z,7.90
2022-11-24T08:41:33.497Z,8.00
2022-11-24T08:44:03.085Z,8.00
2022-11-24T08:46:32.544Z,7.90
2022-11-24T08:49:02.198Z,7.80
2022-11-24T08:51:31.734Z,7.80
2022-11-24T08:54:02.676Z,7.80
2022-11-24T08:56:34.096Z,7.80
2022-11-24T08:59:03.745Z,8.00
2022-11-24T09:01:34.346Z,8.00
2022-11-24T09:04:03.824Z,8.20
2022-11-24T09:06:33.305Z,8.10
2022-11-24T09:09:02.763Z,8.30
2022-11-24T09:11:34.066Z,8.40
2022-11-24T09:14:03.643Z,8.50
2022-11-24T09:16:33.227Z,8.90
2022-11-24T09:19:08.344Z,8.70
2022-11-24T09:21:39.206Z,8.70
2022-11-24T09:24:09.011Z,8.80
2022-11-24T09:26:46.165Z,9.00
2022-11-24T09:29:12.845Z,8.90
2022-11-24T09:31:42.559Z,8.80
2022-11-24T09:34:15.605Z,9.10
2022-11-24T09:36:44.519Z,9.40
2022-11-24T09:39:14.063Z,9.40
2022-11-24T09:42:09.048Z,9.90
2022-11-24T09:44:57.894Z,10.70
2022-11-24T09:47:48.859Z,10.70
2022-11-24T09:50:24.071Z,10.40
2022-11-24T09:53:16.136Z,10.30
2022-11-24T09:55:54.868Z,10.60
2022-11-24T09:58:45.815Z,10.30
2022-11-24T10:01:21.573Z,9.90
2022-11-24T10:03:58.610Z,10.20
2022-11-24T10:06:48.523Z,10.10
2022-11-24T10:09:37.681Z,9.90
2022-11-24T10:12:13.122Z,9.90
2022-11-24T10:15:18.895Z,9.90
2022-11-24T10:18:09.372Z,9.90
2022-11-24T10:20:38.897Z,10.10
2022-11-24T10:23:46.008Z,10.30
2022-11-24T10:26:16.299Z,10.40
2022-11-24T10:28:48.852Z,10.30
2022-11-24T10:31:27.311Z,10.40
2022-11-24T10:34:08.421Z,10.40
2022-11-24T10:36:59.676Z,10.30
2022-11-24T10:40:00.859Z,10.50
2022-11-24T10:42:38.615Z,10.60
2022-11-24T10:45:08.800Z,11.30
2022-11-24T10:47:38.977Z,11.50
2022-11-24T10:50:23.546Z,11.50
2022-11-24T10:53:05.909Z,11.30
2022-11-24T10:55:58.037Z,12.00
2022-11-24T10:58:38.577Z,12.10
2022-11-24T11:01:15.425Z,12.40
2022-11-24T11:03:51.233Z,12.20
2022-11-24T11:06:23.445Z,11.80
2022-11-24T11:08:56.104Z,11.80
2022-11-24T11:11:31.686Z,11.80
2022-11-24T11:14:06.461Z,11.90
2022-11-24T11:16:42.766Z,12.00
2022-11-24T11:20:01.716Z,12.00
2022-11-24T11:22:27.805Z,12.10
2022-11-24T11:25:12.705Z,12.00
2022-11-24T11:27:43.377Z,12.00
2022-11-24T11:35:33.812Z,11.90
2022-11-24T11:38:06.937Z,12.10
2022-11-24T11:40:37.583Z,12.40
2022-11-24T11:43:18.939Z,12.50
2022-11-24T11:45:51.598Z,12.60
2022-11-24T11:48:32.462Z,12.60
2022-11-24T11:51:37.098Z,12.60
2022-11-24T11:54:27.488Z,12.80
2022-11-24T11:57:00.061Z,12.60
2022-11-24T11:59:32.642Z,12.60
2022-11-24T12:02:29.868Z,12.60
2022-11-24T12:05:22.704Z,12.50
2022-11-24T12:08:22.741Z,12.50
2022-11-24T12:10:58.248Z,12.50
2022-11-24T12:13:36.705Z,12.50
2022-11-24T12:16:14.960Z,12.60
2022-11-24T12:18:57.490Z,12.70
2022-11-24T12:21:40.513Z,12.70
2022-11-24T12:24:18.867Z,12.80
2022-11-24T12:27:06.364Z,12.80
2022-11-24T12:29:44.796Z,12.90
2022-11-24T12:32:35.650Z,12.90
2022-11-24T12:35:14.152Z,12.90
2022-11-24T12:38:04.425Z,13.10
2022-11-24T12:40:45.136Z,13.00
2022-11-24T12:43:40.297Z,13.30
2022-11-24T12:46:18.702Z,13.50
2022-11-24T12:49:09.806Z,13.70
2022-11-24T12:51:45.231Z,13.80
2022-11-24T12:54:17.756Z,13.80
2022-11-24T12:56:48.049Z,13.80
2022-11-24T12:59:50.144Z,13.80
2022-11-24T13:02:31.488Z,13.60
2022-11-24T13:05:20.636Z,13.50
2022-11-24T13:07:54.788Z,13.50
2022-11-24T13:10:54.219Z,13.50
2022-11-24T13:13:03.843Z,13.60
2022-11-24T13:15:46.090Z,13.70
2022-11-24T13:18:12.445Z,13.70
2022-11-24T13:20:41.838Z,13.60
2022-11-24T13:23:15.122Z,13.60
2022-11-24T13:25:48.014Z,13.60
2022-11-24T13:28:39.453Z,13.60
2022-11-24T13:30:56.475Z,13.50
2022-11-24T13:33:32.451Z,13.60
2022-11-24T13:36:07.894Z,13.50
2022-11-24T13:38:46.514Z,13.50
2022-11-24T13:41:37.602Z,13.40
2022-11-24T13:44:20.804Z,13.50
2022-11-24T13:47:08.322Z,13.50
2022-11-24T13:49:42.999Z,13.50
2022-11-24T13:52:38.486Z,13.60
2022-11-24T13:55:17.039Z,13.50
2022-11-24T13:57:49.456Z,13.60
2022-11-24T14:00:31.039Z,13.60
2022-11-24T14:03:06.328Z,13.60
2022-11-24T14:05:41.311Z,13.60
2022-11-24T14:08:13.821Z,13.60
2022-11-24T14:10:44.777Z,13.60
2022-11-24T14:13:26.576Z,13.60
2022-11-24T14:16:08.701Z,13.60
2022-11-24T14:18:43.657Z,13.50
2022-11-24T14:21:25.703Z,13.50
2022-11-24T14:23:58.288Z,13.50
2022-11-24T14:26:40.051Z,13.50
2022-11-24T14:29:20.291Z,13.50
2022-11-24T14:32:01.517Z,13.40
2022-11-24T14:34:33.743Z,13.50
2022-11-24T14:37:03.560Z,13.40
2022-11-24T14:39:36.195Z,13.40
2022-11-24T14:42:20.971Z,13.40
2022-11-24T14:45:04.103Z,13.40
2022-11-24T14:47:35.918Z,13.40
2022-11-24T14:50:11.135Z,13.40
2022-11-24T14:52:46.541Z,13.30
2022-11-24T14:55:35.523Z,13.20
2022-11-24T14:58:08.045Z,13.20
2022-11-24T15:00:37.527Z,13.20
2022-11-24T15:03:17.326Z,13.20
2022-11-24T15:05:59.517Z,13.20
2022-11-24T15:08:32.026Z,13.10
2022-11-24T15:11:04.404Z,13.00
2022-11-24T15:13:37.384Z,12.90
2022-11-24T15:16:17.958Z,12.90
2022-11-24T15:19:02.168Z,12.80
2022-11-24T15:21:36.796Z,12.80
2022-11-24T15:24:17.622Z,12.80
2022-11-24T15:26:47.640Z,12.80
2022-11-24T15:29:17.113Z,12.70
2022-11-24T15:31:52.401Z,12.60
2022-11-24T15:34:17.662Z,12.50
2022-11-24T15:36:47.055Z,12.50
2022-11-24T15:39:16.485Z,12.70
2022-11-24T15:41:47.710Z,12.70
2022-11-24T15:44:17.132Z,12.70
2022-11-24T15:46:46.640Z,12.50
2022-11-24T15:49:16.266Z,12.50
2022-11-24T15:51:47.623Z,12.40
2022-11-24T15:54:19.610Z,12.30
2022-11-24T15:56:49.046Z,12.30
2022-11-24T15:59:21.076Z,12.30
2022-11-24T16:01:50.819Z,12.20
2022-11-24T16:04:20.809Z,12.20
2022-11-24T16:06:50.260Z,12.10
2022-11-24T16:09:19.713Z,12.10
2022-11-24T16:11:49.147Z,12.10
2022-11-24T16:14:18.772Z,12.00
2022-11-24T16:16:48.646Z,12.00
2022-11-24T16:19:18.160Z,12.00
2022-11-24T16:21:51.343Z,12.00
2022-11-24T16:24:20.858Z,12.00
2022-11-24T16:26:50.367Z,12.00
2022-11-24T16:29:21.190Z,11.90
2022-11-24T16:31:52.311Z,11.90
2022-11-24T16:34:21.777Z,11.80
2022-11-24T16:36:51.283Z,11.80
2022-11-24T16:39:20.812Z,11.80
2022-11-24T16:41:50.253Z,11.80
2022-11-24T16:44:20.079Z,11.80
2022-11-24T16:46:49.722Z,11.80
2022-11-24T16:49:19.227Z,11.90
2022-11-24T16:51:48.759Z,11.70
2022-11-24T16:54:18.278Z,11.70
2022-11-24T16:56:47.774Z,11.70
2022-11-24T16:59:17.359Z,11.70
2022-11-24T17:01:48.675Z,11.70
2022-11-24T17:04:18.823Z,11.70
2022-11-24T17:06:48.256Z,11.70
2022-11-24T17:09:18.883Z,11.60
2022-11-24T17:11:48.377Z,11.60
2022-11-24T17:14:17.845Z,11.50
2022-11-24T17:16:47.335Z,11.50
2022-11-24T17:19:16.815Z,11.60
2022-11-24T17:21:46.279Z,11.50
2022-11-24T17:24:17.423Z,11.50
2022-11-24T17:26:49.137Z,11.60
2022-11-24T17:29:18.671Z,11.50
2022-11-24T17:31:48.214Z,11.50
2022-11-24T17:34:17.855Z,11.40
2022-11-24T17:36:47.362Z,11.40
2022-11-24T17:39:20.317Z,11.40
2022-11-24T17:41:48.021Z,11.50
2022-11-24T17:44:17.481Z,11.40
2022-11-24T17:46:47.485Z,11.50
2022-11-24T17:49:18.419Z,11.50
2022-11-24T17:51:49.721Z,11.40
2022-11-24T17:56:51.139Z,11.40
2022-11-24T17:59:20.581Z,11.40
2022-11-24T18:01:50.144Z,11.50
2022-11-24T18:04:19.715Z,11.40
2022-11-24T18:06:49.141Z,11.40
2022-11-24T18:09:18.651Z,11.40
2022-11-24T18:11:48.190Z,11.40
2022-11-24T18:14:17.773Z,11.40
2022-11-24T18:16:47.246Z,11.40
2022-11-24T18:19:16.750Z,11.30
2022-11-24T18:21:46.755Z,11.40
2022-11-24T18:24:22.647Z,11.30
2022-11-24T18:26:50.664Z,11.40
2022-11-24T18:29:20.102Z,11.30
2022-11-24T18:31:49.571Z,11.30
2022-11-24T18:34:18.991Z,11.30
2022-11-24T18:36:50.055Z,11.30
2022-11-24T18:39:19.749Z,11.30
2022-11-24T18:41:49.202Z,11.30
2022-11-24T18:44:18.721Z,11.20
2022-11-24T18:46:50.161Z,11.30
2022-11-24T18:49:19.627Z,11.30
2022-11-24T18:51:49.076Z,11.20
2022-11-24T18:54:18.506Z,11.20
2022-11-24T18:56:47.983Z,11.20
2022-11-24T18:59:17.491Z,11.20
2022-11-24T19:01:47.084Z,11.20
2022-11-24T19:04:16.999Z,11.10
2022-11-24T19:06:46.753Z,11.10
2022-11-24T19:09:20.470Z,11.10
2022-11-24T19:11:50.143Z,11.10
2022-11-24T19:14:20.528Z,11.10
2022-11-24T19:16:50.177Z,11.00
2022-11-24T19:19:19.905Z,11.00
2022-11-24T19:21:49.348Z,11.00
2022-11-24T19:24:18.779Z,10.90
2022-11-24T19:26:48.457Z,10.90
2022-11-24T19:29:17.955Z,10.90
2022-11-24T19:31:48.162Z,10.90
2022-11-24T19:34:19.145Z,10.90
2022-11-24T19:36:48.684Z,10.80
2022-11-24T19:39:18.176Z,10.80
2022-11-24T19:41:47.690Z,10.80
2022-11-24T19:44:18.093Z,10.80
2022-11-24T19:46:47.599Z,10.80
2022-11-24T19:49:17.260Z,10.80
2022-11-24T19:51:48.356Z,10.80
2022-11-24T19:54:18.375Z,10.80
2022-11-24T19:56:47.799Z,10.80
2022-11-24T19:59:17.441Z,10.90
2022-11-24T20:01:46.994Z,10.80
2022-11-24T20:04:16.591Z,10.80
2022-11-24T20:06:48.252Z,10.80
2022-11-24T20:09:18.750Z,10.80
2022-11-24T20:11:49.204Z,10.80
2022-11-24T20:14:19.373Z,10.80
2022-11-24T20:16:49.430Z,10.80
2022-11-24T20:19:19.653Z,10.80
2022-11-24T20:21:50.547Z,10.80
2022-11-24T20:24:24.787Z,10.80
2022-11-24T20:26:58.209Z,10.80
2022-11-24T20:29:29.262Z,10.80
2022-11-24T20:31:58.818Z,10.80
2022-11-24T20:34:29.309Z,10.80
2022-11-24T20:36:57.945Z,10.80
2022-11-24T20:39:29.264Z,10.80
2022-11-24T20:41:58.706Z,10.80
2022-11-24T20:44:30.038Z,10.80
2022-11-24T20:47:01.381Z,10.80
2022-11-24T20:49:30.978Z,10.70
2022-11-24T20:52:00.520Z,10.70
2022-11-24T20:54:30.420Z,10.70
2022-11-24T20:57:03.321Z,10.70
2022-11-24T20:59:32.903Z,10.70
2022-11-24T21:02:02.517Z,10.60
2022-11-24T21:04:33.740Z,10.70
2022-11-24T21:07:04.011Z,10.60
2022-11-24T21:09:33.744Z,10.60
2022-11-24T21:12:03.180Z,10.70
2022-11-24T21:14:35.319Z,10.70
2022-11-24T21:17:02.953Z,10.70
2022-11-24T21:19:32.319Z,10.70
2022-11-24T21:22:01.759Z,10.70
2022-11-24T21:24:31.309Z,10.70
2022-11-24T21:27:00.734Z,10.70
2022-11-24T21:29:30.171Z,10.60
2022-11-24T21:31:59.690Z,10.70
2022-11-24T21:34:29.328Z,10.70
2022-11-24T21:36:58.765Z,10.60
2022-11-24T21:39:29.248Z,10.50
2022-11-24T21:41:58.726Z,10.50
2022-11-24T21:44:29.825Z,10.50
2022-11-24T21:46:59.541Z,10.40
2022-11-24T21:49:29.382Z,10.40
2022-11-24T21:51:58.821Z,10.30
2022-11-24T21:54:28.535Z,10.30
2022-11-24T21:56:58.499Z,10.30
2022-11-24T21:59:28.062Z,10.20
2022-11-24T22:01:57.590Z,10.20
2022-11-24T22:04:27.126Z,10.20
2022-11-24T22:06:56.690Z,10.00
2022-11-24T22:09:26.169Z,10.00
2022-11-24T22:11:55.781Z,10.00
2022-11-24T22:14:25.228Z,9.90
2022-11-24T22:16:54.734Z,10.00
2022-11-24T22:19:24.426Z,10.00
2022-11-24T22:21:53.871Z,9.90
2022-11-24T22:24:27.308Z,9.90
2022-11-24T22:26:56.439Z,9.90
2022-11-24T22:29:25.872Z,9.70
2022-11-24T22:31:55.411Z,9.80
2022-11-24T22:34:24.938Z,9.90
2022-11-24T22:36:54.694Z,9.80
2022-11-24T22:39:24.123Z,9.80
2022-11-24T22:41:56.908Z,9.80
2022-11-24T22:44:26.347Z,9.90
2022-11-24T22:46:55.787Z,9.80
2022-11-24T22:49:25.263Z,9.80
2022-11-24T22:51:54.684Z,9.80
2022-11-24T22:54:24.123Z,9.80
2022-11-24T22:56:53.655Z,9.90
2022-11-24T22:59:23.151Z,9.90
2022-11-24T23:01:52.602Z,9.90
2022-11-24T23:04:22.170Z,9.90
2022-11-24T23:06:52.075Z,9.90
2022-11-24T23:09:21.497Z,9.90
2022-11-24T23:11:51.096Z,9.90
2022-11-24T23:14:20.654Z,9.90
2022-11-24T23:16:50.249Z,9.90
2022-11-24T23:19:19.841Z,9.90
2022-11-24T23:21:49.364Z,10.00
2022-11-24T23:24:18.865Z,9.90
2022-11-24T23:26:48.447Z,9.80
2022-11-24T23:29:17.847Z,9.90
2022-11-24T23:31:47.329Z,9.80
2022-11-24T23:34:16.835Z,9.80
2022-11-24T23:36:46.272Z,9.90
2022-11-24T23:39:15.842Z,9.80
2022-11-24T23:41:45.696Z,9.80
2022-11-24T23:44:15.499Z,9.80
2022-11-24T23:46:44.982Z,9.70
2022-11-24T23:49:14.414Z,9.60
2022-11-24T23:51:43.838Z,9.50
2022-11-24T23:54:13.375Z,9.50
2022-11-24T23:56:42.756Z,9.60
2022-11-24T23:59:12.576Z,9.50
